Rechercher aéroport 
image banner adimage banner adimage banner ad
image banner ad

KJAQ - Westover Field Amador County

Situé à Jackson, United States

ICAO - JAQ, IATA -

Données fournies par Airmate  

Information générale

Coordonnées: N38°22'36" W120°47'38"
Élévation : 1693 feet MSL.
Variation magnétique : 16° East
Voir autres Aéroports à California

Données opérationnelles

Special qualification required
Heure actuelle UTC:
Heure actuelle locale:
Météo
METAR: KJAQ 251215Z AUTO 00000KT 10SM CLR 21/04 A2995 RMK AO1 T02080043
Voir NOTAMs / SUP AIP / TFR affectant cet aéroport [VIEW]
Fréquences de communication: [VIEW]

Pistes:

Identifiant RWYQFULongueur (ft)Largeur (ft)SurfaceLDA (ft)
0122°340160ASPH
19202°340160ASPH

Coordonnées de l'aéroport

Adresse: Jackson United States

Vue satellite de KJAQ